createdAt,value
2022-09-12T00:00:52.317Z,20
2022-09-12T00:01:52.313Z,20
2022-09-12T00:02:52.319Z,20
2022-09-12T00:03:52.309Z,20
2022-09-12T00:04:52.287Z,20
2022-09-12T00:05:52.280Z,20
2022-09-12T00:06:52.255Z,20
2022-09-12T00:07:52.248Z,20
2022-09-12T00:08:52.230Z,20
2022-09-12T00:09:52.229Z,20
2022-09-12T00:10:52.229Z,20
2022-09-12T00:11:52.196Z,20
2022-09-12T00:12:52.191Z,20
2022-09-12T00:13:52.173Z,20
2022-09-12T00:14:52.197Z,20
2022-09-12T00:15:52.166Z,20
2022-09-12T00:16:52.150Z,20
2022-09-12T00:17:52.131Z,20
2022-09-12T00:18:52.123Z,20
2022-09-12T00:19:52.116Z,20
2022-09-12T00:20:52.117Z,20
2022-09-12T00:21:52.100Z,20
2022-09-12T00:22:52.101Z,20
2022-09-12T00:23:52.069Z,20
2022-09-12T00:24:52.059Z,20
2022-09-12T00:25:52.047Z,20
2022-09-12T00:26:52.046Z,20
2022-09-12T00:27:52.023Z,20
2022-09-12T00:28:52.021Z,20
2022-09-12T00:29:52.007Z,20
2022-09-12T00:30:51.992Z,20
2022-09-12T00:31:51.981Z,20
2022-09-12T00:32:51.975Z,20
2022-09-12T00:33:51.953Z,20
2022-09-12T00:34:51.952Z,20
2022-09-12T00:35:51.943Z,20
2022-09-12T00:36:51.923Z,20
2022-09-12T00:37:51.921Z,20
2022-09-12T00:38:51.913Z,20
2022-09-12T00:39:51.895Z,20
2022-09-12T00:40:51.890Z,20
2022-09-12T00:41:51.876Z,20
2022-09-12T00:42:51.864Z,20
2022-09-12T00:43:51.882Z,20
2022-09-12T00:44:51.846Z,20
2022-09-12T00:45:51.833Z,20
2022-09-12T00:46:51.833Z,20
2022-09-12T00:47:51.815Z,20
2022-09-12T00:48:51.805Z,20
2022-09-12T00:49:51.805Z,20
2022-09-12T00:50:51.800Z,20
2022-09-12T00:51:51.789Z,20
2022-09-12T00:52:51.762Z,20
2022-09-12T00:53:51.753Z,20
2022-09-12T00:54:51.743Z,20
2022-09-12T00:55:51.732Z,20
2022-09-12T00:56:51.726Z,20
2022-09-12T00:57:51.706Z,20
2022-09-12T00:58:51.709Z,20
2022-09-12T00:59:51.693Z,20
2022-09-12T01:00:51.678Z,20
2022-09-12T01:01:51.670Z,20
2022-09-12T01:02:51.678Z,20
2022-09-12T01:03:51.648Z,20
2022-09-12T01:04:51.631Z,20
2022-09-12T01:05:51.634Z,20
2022-09-12T01:06:51.634Z,20
2022-09-12T01:07:51.627Z,20
2022-09-12T01:08:51.612Z,20
2022-09-12T01:09:51.582Z,20
2022-09-12T01:10:51.579Z,20
2022-09-12T01:11:51.564Z,20
2022-09-12T01:12:51.550Z,20
2022-09-12T01:13:51.546Z,20
2022-09-12T01:14:51.555Z,20
2022-09-12T01:15:51.521Z,20
2022-09-12T01:16:51.513Z,20
2022-09-12T01:17:51.502Z,20
2022-09-12T01:18:51.493Z,20
2022-09-12T01:19:51.484Z,20
2022-09-12T01:20:51.484Z,20
2022-09-12T01:21:51.462Z,20
2022-09-12T01:22:51.448Z,20
2022-09-12T01:23:51.438Z,20
2022-09-12T01:24:51.430Z,20
2022-09-12T01:25:51.423Z,20
2022-09-12T01:26:51.438Z,20
2022-09-12T01:27:51.400Z,20
2022-09-12T01:28:51.389Z,20
2022-09-12T01:29:51.376Z,20
2022-09-12T01:30:51.368Z,20
2022-09-12T01:31:51.357Z,20
2022-09-12T01:32:51.360Z,20
2022-09-12T01:33:51.348Z,20
2022-09-12T01:34:51.336Z,20
2022-09-12T01:35:51.320Z,20
2022-09-12T01:36:51.308Z,20
2022-09-12T01:37:51.300Z,20
2022-09-12T01:38:51.320Z,20
2022-09-12T01:39:51.306Z,20
2022-09-12T01:40:51.269Z,20
2022-09-12T01:41:51.257Z,20
2022-09-12T01:42:51.245Z,20
2022-09-12T01:43:51.243Z,20
2022-09-12T01:44:51.263Z,20
2022-09-12T01:45:51.220Z,20
2022-09-12T01:46:51.201Z,20
2022-09-12T01:47:51.203Z,20
2022-09-12T01:48:51.179Z,20
2022-09-12T01:49:51.176Z,20
2022-09-12T01:50:51.174Z,20
2022-09-12T01:51:51.150Z,20
2022-09-12T01:52:51.144Z,20
2022-09-12T01:53:51.128Z,20
2022-09-12T01:54:51.123Z,20
2022-09-12T01:55:51.125Z,20
2022-09-12T01:56:51.103Z,20
2022-09-12T01:57:51.091Z,20
2022-09-12T01:58:51.082Z,20
2022-09-12T01:59:51.070Z,20
2022-09-12T02:00:51.056Z,20
2022-09-12T02:01:51.064Z,20
2022-09-12T02:02:51.063Z,20
2022-09-12T02:03:51.028Z,20
2022-09-12T02:04:51.027Z,20
2022-09-12T02:05:51.010Z,20
2022-09-12T02:06:50.993Z,20
2022-09-12T02:07:50.986Z,20
2022-09-12T02:08:50.977Z,20
2022-09-12T02:09:50.981Z,20
2022-09-12T02:10:50.955Z,20
2022-09-12T02:11:50.949Z,20
2022-09-12T02:12:50.949Z,20
2022-09-12T02:13:50.928Z,20
2022-09-12T02:14:50.913Z,20
2022-09-12T02:15:50.905Z,20
2022-09-12T02:16:50.896Z,20
2022-09-12T02:17:50.883Z,20
2022-09-12T02:18:50.882Z,20
2022-09-12T02:19:50.898Z,20
2022-09-12T02:20:50.852Z,20
2022-09-12T02:21:50.843Z,20
2022-09-12T02:22:50.833Z,20
2022-09-12T02:23:50.821Z,20
2022-09-12T02:24:50.813Z,20
2022-09-12T02:25:50.806Z,20
2022-09-12T02:26:50.813Z,20
2022-09-12T02:27:50.812Z,20
2022-09-12T02:28:50.772Z,20
2022-09-12T02:29:50.764Z,20
2022-09-12T02:30:50.759Z,20
2022-09-12T02:31:50.744Z,20
2022-09-12T02:32:50.731Z,20
2022-09-12T02:33:50.716Z,20
2022-09-12T02:34:50.708Z,20
2022-09-12T02:35:50.701Z,20
2022-09-12T02:36:50.710Z,20
2022-09-12T02:37:50.708Z,20
2022-09-12T02:38:50.667Z,20
2022-09-12T02:39:50.661Z,20
2022-09-12T02:40:50.655Z,20
2022-09-12T02:41:50.651Z,20
2022-09-12T02:42:50.629Z,20
2022-09-12T02:43:50.632Z,20
2022-09-12T02:44:50.624Z,20
2022-09-12T02:45:50.613Z,20
2022-09-12T02:46:50.591Z,20
2022-09-12T02:47:50.586Z,20
2022-09-12T02:48:50.590Z,20
2022-09-12T02:49:50.575Z,20
2022-09-12T02:50:50.577Z,20
2022-09-12T02:51:50.537Z,20
2022-09-12T02:52:50.523Z,20
2022-09-12T02:53:50.513Z,20
2022-09-12T02:54:50.501Z,20
2022-09-12T02:55:50.492Z,20
2022-09-12T02:56:50.525Z,20
2022-09-12T02:57:50.494Z,20
2022-09-12T02:58:50.459Z,20
2022-09-12T02:59:50.455Z,20
2022-09-12T03:00:50.439Z,24
2022-09-12T03:01:50.453Z,24
2022-09-12T03:02:50.424Z,24
2022-09-12T03:03:50.423Z,24
2022-09-12T03:04:50.404Z,24
2022-09-12T03:05:50.392Z,24
2022-09-12T03:06:50.379Z,24
2022-09-12T03:07:50.387Z,24
2022-09-12T03:08:50.413Z,24
2022-09-12T03:09:50.349Z,24
2022-09-12T03:10:50.342Z,24
2022-09-12T03:11:50.331Z,24
2022-09-12T03:12:50.327Z,24
2022-09-12T03:13:50.301Z,24
2022-09-12T03:14:50.298Z,24
2022-09-12T03:15:50.289Z,24
2022-09-12T03:16:50.273Z,24
2022-09-12T03:17:50.269Z,24
2022-09-12T03:18:50.293Z,24
2022-09-12T03:19:50.261Z,24
2022-09-12T03:20:50.247Z,24
2022-09-12T03:21:50.221Z,24
2022-09-12T03:22:50.212Z,24
2022-09-12T03:23:50.225Z,24
2022-09-12T03:24:50.197Z,24
2022-09-12T03:25:50.209Z,24
2022-09-12T03:26:50.180Z,24
2022-09-12T03:27:50.184Z,24
2022-09-12T03:28:50.147Z,24
2022-09-12T03:29:50.138Z,24
2022-09-12T03:30:50.129Z,24
2022-09-12T03:31:50.114Z,24
2022-09-12T03:32:50.157Z,24
2022-09-12T03:33:50.099Z,24
2022-09-12T03:34:50.086Z,24
2022-09-12T03:35:50.076Z,24
2022-09-12T03:36:50.068Z,24
2022-09-12T03:37:50.065Z,24
2022-09-12T03:38:50.047Z,24
2022-09-12T03:39:50.038Z,24
2022-09-12T03:40:50.022Z,24
2022-09-12T03:41:50.016Z,24
2022-09-12T03:42:50.019Z,24
2022-09-12T03:43:49.995Z,24
2022-09-12T03:44:49.990Z,24
2022-09-12T03:45:49.987Z,24
2022-09-12T03:46:49.966Z,24
2022-09-12T03:47:49.950Z,24
2022-09-12T03:48:49.952Z,24
2022-09-12T03:49:49.930Z,24
2022-09-12T03:50:49.919Z,24
2022-09-12T03:51:49.904Z,24
2022-09-12T03:52:49.902Z,24
2022-09-12T03:53:49.895Z,24
2022-09-12T03:54:49.877Z,24
2022-09-12T03:55:49.861Z,24
2022-09-12T03:56:49.853Z,24
2022-09-12T03:57:49.866Z,24
2022-09-12T03:58:49.884Z,24
2022-09-12T03:59:49.884Z,24
2022-09-12T04:00:49.823Z,24
2022-09-12T04:01:49.848Z,24
2022-09-12T04:02:49.813Z,24
2022-09-12T04:03:49.779Z,24
2022-09-12T04:04:49.770Z,24
2022-09-12T04:05:49.771Z,24
2022-09-12T04:06:49.763Z,24
2022-09-12T04:07:49.735Z,24
2022-09-12T04:08:49.722Z,24
2022-09-12T04:09:49.710Z,24
2022-09-12T04:10:49.704Z,24
2022-09-12T04:11:49.701Z,24
2022-09-12T04:12:49.688Z,24
2022-09-12T04:13:49.675Z,24
2022-09-12T04:14:49.662Z,24
2022-09-12T04:15:49.652Z,24
2022-09-12T04:16:49.642Z,24
2022-09-12T04:17:49.628Z,24
2022-09-12T04:18:49.617Z,24
2022-09-12T04:19:49.615Z,24
2022-09-12T04:20:49.605Z,28
2022-09-12T04:21:49.585Z,28
2022-09-12T04:22:49.582Z,28
2022-09-12T04:23:49.573Z,28
2022-09-12T04:24:49.557Z,24
2022-09-12T04:25:49.546Z,28
2022-09-12T04:26:49.539Z,28
2022-09-12T04:27:49.547Z,28
2022-09-12T04:28:49.531Z,32
2022-09-12T04:29:49.509Z,28
2022-09-12T04:30:49.491Z,28
2022-09-12T04:31:49.482Z,32
2022-09-12T04:32:49.479Z,24
2022-09-12T04:33:49.469Z,24
2022-09-12T04:34:49.464Z,24
2022-09-12T04:35:49.460Z,28
2022-09-12T04:36:49.434Z,32
2022-09-12T04:37:49.447Z,32
2022-09-12T04:38:49.411Z,36
2022-09-12T04:39:49.411Z,40
2022-09-12T04:40:49.390Z,44
2022-09-12T04:41:49.390Z,48
2022-09-12T04:42:49.370Z,52
2022-09-12T04:43:49.364Z,60
2022-09-12T04:44:49.356Z,64
2022-09-12T04:45:49.343Z,72
2022-09-12T04:46:49.329Z,80
2022-09-12T04:47:49.327Z,88
2022-09-12T04:48:49.304Z,100
2022-09-12T04:49:49.300Z,108
2022-09-12T04:50:49.286Z,116
2022-09-12T04:51:49.291Z,128
2022-09-12T04:52:49.260Z,140
2022-09-12T04:53:49.249Z,152
2022-09-12T04:54:49.243Z,164
2022-09-12T04:55:49.230Z,180
2022-09-12T04:56:49.223Z,192
2022-09-12T04:57:49.222Z,208
2022-09-12T04:58:49.200Z,212
2022-09-12T04:59:49.188Z,228
2022-09-12T05:00:49.176Z,248
2022-09-12T05:01:49.166Z,268
2022-09-12T05:02:49.155Z,284
2022-09-12T05:03:49.151Z,308
2022-09-12T05:04:49.146Z,328
2022-09-12T05:05:49.123Z,352
2022-09-12T05:06:49.112Z,376
2022-09-12T05:07:49.100Z,404
2022-09-12T05:08:49.094Z,424
2022-09-12T05:09:49.098Z,452
2022-09-12T05:10:49.076Z,476
2022-09-12T05:11:49.055Z,504
2022-09-12T05:12:49.050Z,528
2022-09-12T05:13:49.051Z,552
2022-09-12T05:14:49.048Z,580
2022-09-12T05:15:49.021Z,608
2022-09-12T05:16:49.076Z,640
2022-09-12T05:17:49.004Z,664
2022-09-12T05:18:48.990Z,692
2022-09-12T05:19:48.992Z,720
2022-09-12T05:20:48.983Z,752
2022-09-12T05:21:48.951Z,780
2022-09-12T05:22:48.938Z,808
2022-09-12T05:23:48.941Z,840
2022-09-12T05:24:48.920Z,872
2022-09-12T05:25:48.906Z,908
2022-09-12T05:26:48.897Z,944
2022-09-12T05:27:48.892Z,972
2022-09-12T05:28:48.883Z,1008
2022-09-12T05:29:48.870Z,1040
2022-09-12T05:30:48.853Z,1068
2022-09-12T05:31:48.848Z,1108
2022-09-12T05:32:48.830Z,1152
2022-09-12T05:33:48.830Z,1200
2022-09-12T05:34:48.811Z,1236
2022-09-12T05:35:48.810Z,1272
2022-09-12T05:36:48.791Z,1324
2022-09-12T05:37:48.780Z,1372
2022-09-12T05:38:48.772Z,1416
2022-09-12T05:39:48.759Z,1460
2022-09-12T05:40:48.750Z,1504
2022-09-12T05:41:48.751Z,1552
2022-09-12T05:42:48.729Z,1588
2022-09-12T05:43:48.730Z,1632
2022-09-12T05:44:48.705Z,1664
2022-09-12T05:45:48.703Z,1700
2022-09-12T05:46:48.683Z,1736
2022-09-12T05:47:48.682Z,1752
2022-09-12T05:48:48.738Z,1704
2022-09-12T05:49:48.655Z,1712
2022-09-12T05:50:48.663Z,1800
2022-09-12T05:51:48.649Z,1860
2022-09-12T05:52:48.616Z,1940
2022-09-12T05:53:48.607Z,1976
2022-09-12T05:54:48.600Z,1996
2022-09-12T05:55:48.590Z,2008
2022-09-12T05:56:48.608Z,2044
2022-09-12T05:57:48.582Z,2072
2022-09-12T05:58:48.556Z,2092
2022-09-12T05:59:48.552Z,2144
2022-09-12T06:00:48.538Z,2196
2022-09-12T06:01:48.537Z,2232
2022-09-12T06:02:48.515Z,2256
2022-09-12T06:03:48.517Z,2328
2022-09-12T06:04:48.502Z,2432
2022-09-12T06:05:48.486Z,2500
2022-09-12T06:06:48.500Z,2528
2022-09-12T06:07:48.469Z,2568
2022-09-12T06:08:48.454Z,2584
2022-09-12T06:09:48.439Z,2612
2022-09-12T06:10:48.437Z,2664
2022-09-12T06:11:48.422Z,2684
2022-09-12T06:12:48.413Z,2688
2022-09-12T06:13:48.400Z,3096
2022-09-12T06:14:48.393Z,2812
2022-09-12T06:15:48.396Z,2952
2022-09-12T06:16:48.371Z,2968
2022-09-12T06:17:48.367Z,3164
2022-09-12T06:18:48.371Z,3168
2022-09-12T06:19:48.372Z,3384
2022-09-12T06:20:48.333Z,3404
2022-09-12T06:21:48.322Z,3344
2022-09-12T06:22:48.309Z,3404
2022-09-12T06:23:48.298Z,3432
2022-09-12T06:24:48.295Z,3496
2022-09-12T06:25:48.278Z,3620
2022-09-12T06:26:48.265Z,3696
2022-09-12T06:27:48.258Z,3844
2022-09-12T06:28:48.246Z,3836
2022-09-12T06:29:48.236Z,3888
2022-09-12T06:30:48.227Z,4012
2022-09-12T06:31:48.223Z,4148
2022-09-12T06:32:48.209Z,4236
2022-09-12T06:33:48.198Z,4276
2022-09-12T06:34:48.182Z,4364
2022-09-12T06:35:48.180Z,4472
2022-09-12T06:36:48.173Z,4504
2022-09-12T06:37:48.149Z,4520
2022-09-12T06:38:48.148Z,4584
2022-09-12T06:39:48.132Z,4576
2022-09-12T06:40:48.124Z,4600
2022-09-12T06:41:48.116Z,4624
2022-09-12T06:42:48.102Z,4648
2022-09-12T06:43:48.088Z,4716
2022-09-12T06:44:48.079Z,4804
2022-09-12T06:45:48.074Z,4824
2022-09-12T06:46:48.051Z,4720
2022-09-12T06:47:48.048Z,4800
2022-09-12T06:48:48.034Z,4840
2022-09-12T06:49:48.024Z,4852
2022-09-12T06:50:48.054Z,4852
2022-09-12T06:51:47.999Z,4840
2022-09-12T06:52:47.990Z,4904
2022-09-12T06:53:48.002Z,4916
2022-09-12T06:54:47.968Z,4476
2022-09-12T06:55:47.960Z,4608
2022-09-12T06:56:47.956Z,4876
2022-09-12T06:57:47.941Z,5360
2022-09-12T06:58:47.925Z,5324
2022-09-12T06:59:47.914Z,5224
2022-09-12T07:00:47.900Z,5328
2022-09-12T07:01:47.894Z,5276
2022-09-12T07:02:47.882Z,5640
2022-09-12T07:03:47.882Z,5732
2022-09-12T07:04:47.890Z,6000
2022-09-12T07:05:47.846Z,5912
2022-09-12T07:06:47.838Z,5608
2022-09-12T07:07:47.833Z,5920
2022-09-12T07:08:47.815Z,6140
2022-09-12T07:09:47.823Z,6280
2022-09-12T07:10:47.805Z,6480
2022-09-12T07:11:47.801Z,6752
2022-09-12T07:12:47.782Z,6824
2022-09-12T07:13:47.771Z,6928
2022-09-12T07:14:47.756Z,6940
2022-09-12T07:15:47.752Z,6736
2022-09-12T07:16:47.733Z,6684
2022-09-12T07:17:47.722Z,6412
2022-09-12T07:18:47.764Z,6644
2022-09-12T07:19:47.724Z,7416
2022-09-12T07:20:47.692Z,7656
2022-09-12T07:21:47.690Z,7700
2022-09-12T07:22:47.678Z,7616
2022-09-12T07:23:47.657Z,7740
2022-09-12T07:24:47.650Z,7512
2022-09-12T07:25:47.641Z,7532
2022-09-12T07:26:47.627Z,7616
2022-09-12T07:27:47.627Z,8120
2022-09-12T07:28:47.633Z,8072
2022-09-12T07:29:47.614Z,8356
2022-09-12T07:30:47.587Z,8796
2022-09-12T07:31:47.574Z,9236
2022-09-12T07:32:47.560Z,10352
2022-09-12T07:33:47.550Z,10136
2022-09-12T07:34:47.574Z,10556
2022-09-12T07:35:47.532Z,10752
2022-09-12T07:36:47.517Z,10848
2022-09-12T07:37:47.508Z,10932
2022-09-12T07:38:47.501Z,10816
2022-09-12T07:39:47.490Z,11096
2022-09-12T07:40:47.484Z,11188
2022-09-12T07:41:47.468Z,11600
2022-09-12T07:42:47.459Z,11660
2022-09-12T07:43:47.444Z,11852
2022-09-12T07:44:47.447Z,11788
2022-09-12T07:45:47.432Z,12544
2022-09-12T07:46:47.440Z,12860
2022-09-12T07:47:47.416Z,13060
2022-09-12T07:48:47.406Z,12844
2022-09-12T07:49:47.382Z,13116
2022-09-12T07:50:47.375Z,13300
2022-09-12T07:51:47.368Z,14064
2022-09-12T07:52:47.352Z,14532
2022-09-12T07:53:47.344Z,14084
2022-09-12T07:54:47.352Z,14444
2022-09-12T07:55:47.327Z,15100
2022-09-12T07:56:47.311Z,16704
2022-09-12T07:57:47.324Z,19136
2022-09-12T07:58:47.287Z,21280
2022-09-12T23:58:18.067Z,20
2022-09-12T23:59:18.000Z,20
